Thursday, May 05, 2016
02:55 UTC
  |  Log In   |  Register Free
Airport Search:

Vidalia Regional Airport
(KVDI)

Vidalia Regional Airport Diagram
No Airport Diagram Available

FAA data valid effective Mar 31 2016 - May 26 2016 (unless otherwise noted).

 
 
 
 
 
 
 
 
 
 
 
 
 
 
Current Aviation Weather for KVDI

Weather Summary


The most recent METAR observation for VDI was updated at: 12:55 UTC
METAR for KVDI is not available. Closest METAR is for KAZE
KVDI  (most recent observation was updatred at 50:23 UTC)
050235Z AUTO 28003KT 10SM CLR 17/10 A2972 RMK AO2

KAZE  (23.2 nm NE)   (most recent observation was updated at 50:23 UTC)
050235Z AUTO 29003KT 10SM CLR 17/11 A2972 RMK AO2 T01720107

KSBO  (25.0 nm SW)   (most recent observation was updated at 50:23 UTC)
050235Z AUTO 00000KT 10SM CLR 13/11 A2971 RMK AO2

TAF for KVDI is not available.
GlobalAir.com is loading additional information.
 Current Weather at VDI
68.0 F° (20.0 C°)

West winds at 3.5 mph
Pressure:
29.70 in
Humidity:
49%
Wind:
West at 3.5 mph
Dew Point:
48.2 F° (9.0 C°)
Visibility:
10.00 mi
VDI NOAA Radar




Find All Airport Services Find A Hotel Find A Rental Car Find A Golf Course Find A Restaurant $100 Hamburger



Airport Weather Forecast for KVDI

Translated METAR for KVDI (0235 UTC)
METAR:
KVDI 050235Z AUTO 28003KT 10SM CLR 17/10 A2972 RMK AO2
Conditions at:
KVDI (Vidalia Rgnl, GA) observed 0235 UTC 04 May 2016
Temperature:
17°C (62.6°F)
Dewpoint:
10°C (50°F) [RH = 63.4]
Pressure:
29.72 inches Hg (1006.4 mb)
Winds:
from the W (280 degrees) at 3.5 mph (3 knots: 1.5 m/s)
Visibility:
10 mile(s)
Ceiling:
at least 12,000 feet AGL
Clouds:
Clear below 12,000 feet AGL
Remarks:
site is un-manned
site is automated and HAS a precipitation sensor

Translated TAF for TAF for VDI is not available. Refer to local area forecast.
FBO's on the Field
FBO Company Facility Photos Services Transportation Aviation Fuel Prices: Prices include tax
Catering Weather Repair Courtesy Rental Type 100LL JetA JetA+ MOGAS 8087
 
Vidalia Regional Airport

This FBO has not yet been rated
FS:Phillips 66
Last Updated: Apr-25
Login to update fuel prices
SS:
Contact Vidalia Regional AirportMore FBO Information
 
Add another FBO Facility Photos Catering Weather Repair Courtesy Rental Type 100LL JetA JetA+ MOGAS 8087
Services Transportation Aviation Fuel Prices: Prices include tax


model-print
model-print
model-print
model-print